Time;durP1;ratioP1;P1;durP2;ratioP2;P2;SDS_P1;SDS_P2;PMS_P1;PMS_P2;Temp;Humidity;BMP_temperature;BMP_pressure;BME280_temperature;BME280_humidity;BME280_pressure;Samples;Min_cycle;Max_cycle;Signal;HPM_P1;HPM_P2
2023/12/11 00:00:29;;;;;;;2.95;0.82;;;;;;;9.82;56.10;94433.72;6198083;22;20031;-85
2023/12/11 00:02:58;;;;;;;2.40;0.80;;;;;;;9.72;56.96;94441.84;6247985;22;20019;-85
2023/12/11 00:05:23;;;;;;;4.70;1.10;;;;;;;9.11;58.12;94406.91;6247978;22;20053;-84
2023/12/11 00:15:34;;;;;;;1.80;0.80;;;;;;;8.54;59.06;94395.66;6249286;22;20016;-86
2023/12/11 00:18:00;;;;;;;1.83;0.80;;;;;;;8.74;58.19;94395.84;6193329;23;20014;-85
2023/12/11 00:20:25;;;;;;;1.40;0.80;;;;;;;8.68;58.35;94394.00;6167830;23;20032;-85
2023/12/11 00:25:16;;;;;;;3.73;0.80;;;;;;;9.03;57.70;94383.72;6248476;22;20023;-86
2023/12/11 00:27:42;;;;;;;1.25;0.70;;;;;;;9.11;57.25;94356.81;6273346;22;20229;-85
2023/12/11 00:30:09;;;;;;;2.35;0.70;;;;;;;9.00;57.59;94356.38;6222640;22;20008;-85
2023/12/11 00:37:47;;;;;;;3.53;0.85;;;;;;;9.31;58.67;94349.16;6274707;22;20034;-86
2023/12/11 00:40:14;;;;;;;2.78;0.80;;;;;;;9.33;58.54;94339.41;6199181;22;20099;-85
2023/12/11 00:42:39;;;;;;;0.88;0.60;;;;;;;9.44;58.38;94345.84;6247673;22;20026;-86
2023/12/11 00:45:05;;;;;;;2.10;0.80;;;;;;;9.73;57.90;94347.41;6222890;22;20007;-85
2023/12/11 00:50:09;;;;;;;2.22;0.60;;;;;;;9.58;58.72;94363.88;6274312;22;20024;-85
2023/12/11 00:52:35;;;;;;;1.23;0.50;;;;;;;9.37;58.62;94335.44;6222928;22;20087;-85
2023/12/11 00:55:00;;;;;;;1.75;0.50;;;;;;;9.55;58.46;94342.69;6222845;22;20008;-85
2023/12/11 01:10:06;;;;;;;2.80;0.80;;;;;;;9.18;60.66;94336.91;6274435;22;20024;-85
2023/12/11 01:12:32;;;;;;;2.92;0.70;;;;;;;9.40;59.50;94355.81;6222874;22;20086;-85
2023/12/11 01:14:58;;;;;;;1.75;0.80;;;;;;;9.32;59.69;94328.22;6222143;22;20030;-85
2023/12/11 01:17:24;;;;;;;2.53;0.80;;;;;;;9.64;59.23;94346.75;6221399;22;20031;-85
2023/12/11 01:22:25;;;;;;;2.17;0.75;;;;;;;9.58;59.98;94356.09;6243337;23;20024;-85
2023/12/11 01:29:51;;;;;;;1.98;0.80;;;;;;;9.12;61.20;94342.84;6274204;22;20011;-85
2023/12/11 01:32:16;;;;;;;1.80;0.73;;;;;;;9.16;61.07;94349.28;6221828;22;20018;-85
2023/12/11 01:34:41;;;;;;;2.45;0.90;;;;;;;9.41;60.06;94331.47;6197259;22;20090;-85
2023/12/11 01:37:09;;;;;;;2.00;0.70;;;;;;;9.68;60.02;94349.75;6198149;22;20063;-85
2023/12/11 01:44:36;;;;;;;3.17;0.75;;;;;;;10.22;59.22;94368.94;6268277;22;20028;-85
2023/12/11 01:47:02;;;;;;;1.98;0.70;;;;;;;10.34;58.96;94359.59;6192679;23;20079;-85
2023/12/11 01:49:31;;;;;;;2.90;0.90;;;;;;;10.33;59.72;94376.97;6167651;23;20018;-85
2023/12/11 01:51:56;;;;;;;2.70;0.70;;;;;;;10.35;59.70;94381.97;6217171;23;20019;-85
2023/12/11 01:56:57;;;;;;;2.10;0.95;;;;;;;10.12;60.37;94377.09;6264205;22;20035;-85
2023/12/11 01:59:23;;;;;;;2.78;1.08;;;;;;;10.08;60.75;94405.25;6193006;23;20012;-85
2023/12/11 02:01:49;;;;;;;2.25;1.10;;;;;;;10.21;60.09;94401.91;6217195;23;20079;-86
2023/12/11 02:04:15;;;;;;;2.83;0.90;;;;;;;10.05;60.18;94400.47;6217016;23;20008;-85
2023/12/11 02:06:41;;;;;;;2.55;1.10;;;;;;;9.98;60.70;94410.03;6192484;23;20008;-85
2023/12/11 02:14:21;;;;;;;1.17;0.80;;;;;;;9.14;62.46;94418.72;6244418;22;20017;-85
2023/12/11 02:19:12;;;;;;;4.50;0.93;;;;;;;9.24;62.23;94400.22;6243507;22;20039;-85
2023/12/11 02:21:38;;;;;;;1.52;0.70;;;;;;;9.45;61.36;94407.94;6192173;23;20008;-85
2023/12/11 02:24:10;;;;;;;2.10;0.90;;;;;;;9.58;61.70;94402.03;6191546;23;20019;-86
2023/12/11 02:26:36;;;;;;;3.10;1.38;;;;;;;9.71;60.99;94390.91;6216998;23;20004;-85
2023/12/11 02:29:02;;;;;;;2.38;1.00;;;;;;;9.59;61.85;94404.44;6217488;23;20015;-86
2023/12/11 02:33:53;;;;;;;2.90;1.02;;;;;;;9.36;63.31;94390.91;6242722;22;20111;-85
2023/12/11 02:38:45;;;;;;;2.60;0.90;;;;;;;9.57;62.14;94385.63;6244899;22;20035;-85
2023/12/11 02:41:11;;;;;;;2.17;0.80;;;;;;;9.77;61.41;94377.97;6192810;23;20000;-85
2023/12/11 02:43:36;;;;;;;1.80;0.90;;;;;;;9.95;61.31;94397.41;6192450;23;20008;-85
2023/12/11 02:46:02;;;;;;;2.10;0.95;;;;;;;9.88;62.10;94375.81;6218785;23;20015;-85
2023/12/11 02:48:30;;;;;;;4.90;1.00;;;;;;;9.33;63.86;94371.34;6194206;23;20004;-85
2023/12/11 02:50:56;;;;;;;2.95;0.80;;;;;;;9.27;64.34;94366.91;6218380;23;20004;-85
2023/12/11 02:53:21;;;;;;;1.42;0.88;;;;;;;9.51;63.32;94344.09;6193947;23;20051;-86
2023/12/11 02:55:47;;;;;;;3.88;0.77;;;;;;;9.83;62.70;94339.25;6194059;23;20100;-85
2023/12/11 02:58:12;;;;;;;1.83;0.80;;;;;;;10.01;62.04;94331.69;6194243;23;20004;-85
2023/12/11 03:00:40;;;;;;;2.85;0.90;;;;;;;10.29;61.52;94354.16;6169277;23;20011;-85
2023/12/11 03:03:08;;;;;;;3.78;1.30;;;;;;;10.28;62.01;94379.34;6218704;23;20015;-86
2023/12/11 03:05:33;;;;;;;2.10;1.08;;;;;;;9.87;63.12;94382.81;6244532;22;20074;-86
2023/12/11 03:08:02;;;;;;;1.23;0.90;;;;;;;10.09;61.59;94360.09;6192699;23;20019;-85
2023/12/11 03:10:27;;;;;;;3.08;1.08;;;;;;;10.28;61.37;94375.94;6218033;23;20004;-86
2023/12/11 03:20:32;;;;;;;1.65;1.17;;;;;;;10.09;62.04;94362.72;6244435;22;20019;-85
2023/12/11 03:22:58;;;;;;;3.53;1.27;;;;;;;10.42;61.39;94353.41;6193359;23;20019;-85
2023/12/11 03:25:23;;;;;;;2.38;1.20;;;;;;;10.17;61.99;94361.72;6168831;23;20008;-85
2023/12/11 03:35:24;;;;;;;2.45;1.10;;;;;;;10.01;61.39;94370.66;6244734;22;20032;-86
2023/12/11 03:37:50;;;;;;;3.20;0.85;;;;;;;9.84;61.84;94372.00;6218271;23;20012;-86
2023/12/11 03:40:15;;;;;;;2.28;0.80;;;;;;;9.98;60.73;94384.84;6193969;23;20004;-86
2023/12/11 03:42:41;;;;;;;1.13;0.70;;;;;;;10.32;58.95;94372.78;6193577;23;20054;-86
2023/12/11 03:45:06;;;;;;;2.25;0.70;;;;;;;10.01;60.32;94378.44;6218266;23;20008;-85
2023/12/11 03:50:07;;;;;;;1.55;0.70;;;;;;;9.81;61.73;94385.38;6274947;22;20019;-86
2023/12/11 03:52:33;;;;;;;0.80;0.55;;;;;;;9.51;62.04;94365.66;6279328;22;20011;-86
2023/12/11 03:54:58;;;;;;;1.38;0.63;;;;;;;9.24;63.53;94362.09;6278993;22;20090;-86
2023/12/11 03:57:26;;;;;;;1.13;0.60;;;;;;;9.62;62.63;94361.72;6253964;22;20018;-86
2023/12/11 03:59:52;;;;;;;1.50;0.60;;;;;;;9.77;62.00;94352.00;6279749;22;20083;-86
2023/12/11 04:07:28;;;;;;;3.47;1.10;;;;;;;10.32;62.19;94310.41;6275406;22;20026;-85
2023/12/11 04:09:53;;;;;;;2.40;0.90;;;;;;;10.35;62.33;94281.41;6223724;22;20008;-85
2023/12/11 04:19:59;;;;;;;1.25;0.73;;;;;;;10.47;61.19;94297.22;6270075;22;20020;-85
2023/12/11 04:22:27;;;;;;;2.28;0.90;;;;;;;10.53;60.88;94287.84;6218297;23;20008;-84
2023/12/11 04:24:53;;;;;;;2.63;0.80;;;;;;;10.51;60.82;94282.84;6218535;23;20012;-85
2023/12/11 04:27:22;;;;;;;2.63;0.90;;;;;;;10.34;61.69;94294.63;6168106;23;20035;-86
2023/12/11 04:37:13;;;;;;;1.60;0.82;;;;;;;11.01;61.54;94253.78;6218830;22;20077;-85
2023/12/11 04:39:40;;;;;;;1.63;0.70;;;;;;;11.28;60.75;94270.09;6223501;22;20007;-85
2023/12/11 04:44:35;;;;;;;2.20;0.90;;;;;;;11.40;60.31;94269.47;6275563;22;20020;-85
2023/12/11 04:47:00;;;;;;;3.10;1.08;;;;;;;11.06;61.14;94279.16;6223557;22;20011;-85
2023/12/11 04:52:05;;;;;;;1.30;0.90;;;;;;;11.04;60.92;94278.56;6273872;22;20023;-86
2023/12/11 04:54:30;;;;;;;1.88;0.70;;;;;;;10.70;60.91;94276.03;6222377;22;20003;-86
2023/12/11 04:56:56;;;;;;;1.52;0.93;;;;;;;10.70;60.92;94289.03;6221552;22;20074;-86
2023/12/11 05:01:47;;;;;;;1.50;0.95;;;;;;;10.81;60.23;94277.19;6246718;22;20038;-86
2023/12/11 05:06:37;;;;;;;2.53;0.70;;;;;;;11.02;59.89;94304.00;6243890;22;20032;-86
2023/12/11 05:09:03;;;;;;;1.23;0.88;;;;;;;10.92;60.31;94296.59;6192510;23;20012;-86
2023/12/11 05:11:28;;;;;;;3.08;0.80;;;;;;;10.74;60.79;94289.44;6192447;23;20097;-85
2023/12/11 05:14:05;;;;;;;;;;;;;;;;;;;;;
2023/12/11 05:24:05;;;;;;;2.92;1.50;;;;;;;10.85;60.62;94281.03;6252007;22;20031;-85
2023/12/11 05:26:33;;;;;;;1.98;1.58;;;;;;;11.02;60.08;94286.56;6198422;22;20085;-85
2023/12/11 05:29:00;;;;;;;1.65;1.30;;;;;;;11.02;59.77;94272.78;6197301;22;20007;-85
2023/12/11 05:31:25;;;;;;;2.50;1.30;;;;;;;10.96;59.88;94285.59;6223245;22;20012;-85
2023/12/11 05:36:26;;;;;;;1.65;0.80;;;;;;;11.09;59.75;94276.16;6267731;22;20020;-85
2023/12/11 05:54:13;;;;;;;12.38;6.57;;;;;;;11.07;60.29;94263.34;6273481;22;20008;-85
2023/12/11 05:56:38;;;;;;;15.02;8.77;;;;;;;11.10;60.11;94256.94;6222052;22;20022;-86
2023/12/11 05:59:04;;;;;;;1.67;1.13;;;;;;;11.10;60.65;94268.16;6222637;22;20014;-86
2023/12/11 06:01:30;;;;;;;3.70;2.30;;;;;;;11.06;60.61;94279.16;6222542;22;20063;-86
2023/12/11 06:03:55;;;;;;;3.35;2.00;;;;;;;10.93;61.19;94282.63;6197371;22;20015;-86
2023/12/11 06:06:20;;;;;;;5.75;3.70;;;;;;;10.95;60.56;94289.19;6274229;22;20004;-85
2023/12/11 06:11:11;;;;;;;2.50;1.75;;;;;;;11.00;60.58;94287.78;6273997;22;20107;-85
2023/12/11 06:13:37;;;;;;;3.42;1.80;;;;;;;11.11;60.54;94295.78;6198827;22;20007;-86
2023/12/11 06:16:05;;;;;;;2.38;1.70;;;;;;;11.01;60.85;94281.59;6249211;22;20006;-85
2023/12/11 06:18:33;;;;;;;4.32;1.55;;;;;;;11.13;60.23;94266.94;6199436;22;20039;-85
2023/12/11 06:28:35;;;;;;;2.75;1.20;;;;;;;10.72;61.30;94271.41;6269450;22;20143;-85
2023/12/11 06:46:21;;;;;;;2.30;1.00;;;;;;;10.41;61.07;94227.81;6246460;22;20067;-85
2023/12/11 06:48:47;;;;;;;1.25;0.80;;;;;;;10.57;60.97;94226.63;6223817;22;20019;-85
2023/12/11 06:58:58;;;;;;;3.55;1.70;;;;;;;10.43;62.15;94197.22;6275138;22;20027;-86
2023/12/11 07:01:28;;;;;;;2.38;1.30;;;;;;;10.63;61.88;94191.22;6223697;22;20015;-85
2023/12/11 07:03:54;;;;;;;2.30;1.20;;;;;;;10.66;61.70;94203.81;6223698;22;20007;-85
2023/12/11 07:06:23;;;;;;;2.35;1.23;;;;;;;10.73;61.34;94204.59;6248882;22;20080;-84
2023/12/11 07:08:49;;;;;;;2.53;1.00;;;;;;;10.90;59.75;94205.75;6248485;22;19999;-84
2023/12/11 07:11:18;;;;;;;1.77;1.08;;;;;;;10.51;60.58;94176.25;6223615;22;20004;-84
2023/12/11 07:13:43;;;;;;;1.40;1.10;;;;;;;10.48;60.90;94181.84;6248322;22;20007;-84
2023/12/11 07:16:11;;;;;;;2.22;1.00;;;;;;;10.26;61.14;94178.63;6248438;22;20011;-84
2023/12/11 07:18:41;;;;;;;1.65;1.15;;;;;;;10.11;61.31;94168.44;6223746;22;20004;-85
2023/12/11 07:21:08;;;;;;;3.20;1.38;;;;;;;9.79;62.51;94162.22;6248633;22;20004;-84
2023/12/11 07:23:34;;;;;;;2.10;1.20;;;;;;;9.95;62.86;94168.81;6248584;22;20008;-85
2023/12/11 07:28:38;;;;;;;3.05;1.75;;;;;;;10.08;62.30;94158.44;6275594;22;20027;-85
2023/12/11 07:31:05;;;;;;;1.58;1.10;;;;;;;10.28;62.02;94161.03;6223768;22;20007;-85
2023/12/11 07:33:31;;;;;;;1.75;1.20;;;;;;;10.54;61.03;94147.22;6248549;22;20004;-85
2023/12/11 07:35:57;;;;;;;1.80;1.23;;;;;;;10.64;61.06;94146.81;6248441;22;20014;-85
2023/12/11 07:40:48;;;;;;;2.50;1.42;;;;;;;10.49;61.51;94167.84;6276356;22;20154;-84
2023/12/11 07:43:13;;;;;;;6.32;1.92;;;;;;;10.54;61.72;94165.41;6222983;22;20026;-85
2023/12/11 07:45:41;;;;;;;1.55;1.20;;;;;;;10.56;61.03;94152.22;6223055;22;20087;-85
2023/12/11 07:48:07;;;;;;;2.75;1.30;;;;;;;10.47;61.06;94169.03;6223474;22;19999;-84
2023/12/11 07:50:32;;;;;;;1.45;1.00;;;;;;;10.25;61.85;94171.81;6248125;22;20034;-85
2023/12/11 07:52:58;;;;;;;1.60;1.30;;;;;;;10.31;61.18;94185.84;6241592;22;20023;-85
2023/12/11 07:55:23;;;;;;;2.97;1.20;;;;;;;10.24;61.90;94218.81;6193012;23;20012;-86
2023/12/11 07:57:49;;;;;;;2.17;1.27;;;;;;;10.27;61.70;94234.00;6218369;23;20004;-85
2023/12/11 08:05:15;;;;;;;2.40;1.40;;;;;;;9.76;63.56;94224.94;6275619;22;20081;-85
2023/12/11 08:07:40;;;;;;;2.50;1.40;;;;;;;9.82;64.26;94238.94;6248097;22;20008;-85
2023/12/11 08:10:08;;;;;;;2.50;1.38;;;;;;;8.94;67.03;94237.81;6198379;22;20042;-85
2023/12/11 08:12:34;;;;;;;1.92;1.52;;;;;;;9.62;65.15;94246.69;6223161;22;20008;-84
2023/12/11 08:14:59;;;;;;;2.42;1.67;;;;;;;9.76;64.72;94249.09;6223213;22;20008;-85
2023/12/11 08:17:25;;;;;;;2.70;1.70;;;;;;;9.46;66.13;94255.59;6248095;22;20011;-85
2023/12/11 08:19:51;;;;;;;2.63;1.52;;;;;;;9.09;67.90;94242.09;6221686;22;20030;-85
2023/12/11 08:22:17;;;;;;;2.80;1.55;;;;;;;9.67;65.39;94241.69;6220734;22;20011;-85
2023/12/11 08:24:43;;;;;;;5.82;1.50;;;;;;;10.15;64.37;94265.78;6220895;22;20114;-85
2023/12/11 08:27:12;;;;;;;2.97;1.70;;;;;;;9.90;65.58;94257.75;6245768;22;20034;-87
2023/12/11 08:29:38;;;;;;;2.58;1.50;;;;;;;10.26;64.21;94255.78;6247777;22;20004;-85
2023/12/11 08:32:06;;;;;;;1.23;1.10;;;;;;;10.43;64.06;94253.63;6222065;22;20015;-85
2023/12/11 08:34:31;;;;;;;1.92;1.08;;;;;;;10.54;64.28;94266.03;6221332;22;20091;-85
2023/12/11 08:37:00;;;;;;;4.70;1.60;;;;;;;10.78;63.53;94290.63;6221826;22;20015;-85
2023/12/11 08:41:51;;;;;;;2.95;1.80;;;;;;;10.45;65.26;94293.22;6274926;22;20024;-85
2023/12/11 08:44:17;;;;;;;3.30;1.70;;;;;;;10.60;64.68;94287.81;6197354;22;20014;-85
2023/12/11 08:46:46;;;;;;;2.42;1.50;;;;;;;10.79;64.41;94274.00;6247389;22;20010;-85
2023/12/11 08:49:15;;;;;;;4.13;1.88;;;;;;;10.86;64.92;94277.41;6198855;22;20022;-85
2023/12/11 08:51:42;;;;;;;2.63;1.58;;;;;;;10.87;64.62;94263.41;6222356;22;20007;-86
2023/12/11 08:54:07;;;;;;;3.30;1.70;;;;;;;11.09;64.85;94278.78;6273159;22;20027;-86
2023/12/11 08:56:33;;;;;;;3.90;1.77;;;;;;;11.17;64.57;94272.53;6196992;22;19999;-85
2023/12/11 08:58:58;;;;;;;2.33;1.45;;;;;;;11.10;65.05;94275.16;6247416;22;20004;-85
2023/12/11 09:01:24;;;;;;;4.40;2.58;;;;;;;11.09;64.74;94273.56;6222170;22;20031;-85
2023/12/11 09:03:49;;;;;;;57.35;5.82;;;;;;;11.19;63.97;94273.94;6222284;22;20038;-85
2023/12/11 09:06:15;;;;;;;8.25;4.50;;;;;;;11.10;63.89;94270.78;6222102;22;20016;-85
2023/12/11 09:08:41;;;;;;;77.70;7.05;;;;;;;11.01;63.85;94285.00;6222494;22;20067;-85
2023/12/11 09:11:06;;;;;;;375.38;15.00;;;;;;;11.06;63.17;94280.00;6247396;22;19996;-85
2023/12/11 09:13:32;;;;;;;103.85;6.70;;;;;;;10.80;63.94;94283.41;6222034;22;20012;-86
2023/12/11 09:15:57;;;;;;;56.47;8.07;;;;;;;10.51;65.16;94305.44;6197138;22;20026;-85
2023/12/11 09:18:25;;;;;;;457.35;18.67;;;;;;;10.46;64.97;94303.41;6246608;22;20018;-85
2023/12/11 09:20:54;;;;;;;304.23;12.63;;;;;;;11.01;62.81;94297.22;6247129;22;19995;-86
2023/12/11 09:23:19;;;;;;;91.07;38.60;;;;;;;10.65;63.76;94296.63;6222165;22;20113;-87
2023/12/11 09:25:45;;;;;;;7.95;4.68;;;;;;;9.45;67.75;94292.94;6274046;22;20012;-85
2023/12/11 09:28:15;;;;;;;4.95;3.40;;;;;;;9.65;67.87;94309.38;6246642;22;20008;-85
2023/12/11 09:30:43;;;;;;;4.50;2.33;;;;;;;10.04;66.16;94320.91;6196573;22;20006;-85
2023/12/11 09:33:09;;;;;;;3.42;2.42;;;;;;;10.13;65.86;94321.56;6221343;22;20083;-85
2023/12/11 09:38:01;;;;;;;2.35;1.60;;;;;;;10.39;64.96;94333.81;6274547;22;20092;-86
2023/12/11 09:40:26;;;;;;;2.90;2.38;;;;;;;10.26;65.54;94329.38;6221541;22;20007;-85
2023/12/11 09:42:52;;;;;;;2.58;1.75;;;;;;;10.32;65.20;94327.81;6221754;22;20035;-85
2023/12/11 09:45:19;;;;;;;1.70;1.60;;;;;;;10.42;65.20;94320.41;6221648;22;20011;-85
2023/12/11 09:53:02;;;;;;;4.45;2.83;;;;;;;10.49;65.20;94339.44;6272749;22;20020;-85
2023/12/11 09:55:28;;;;;;;19.23;3.13;;;;;;;10.60;65.03;94332.03;6246294;22;20007;-85
2023/12/11 09:57:54;;;;;;;9.23;4.07;;;;;;;10.70;65.28;94335.84;6222008;22;20015;-85
2023/12/11 10:00:22;;;;;;;5.43;4.18;;;;;;;10.80;64.61;94342.44;6222205;22;20003;-85
2023/12/11 10:05:23;;;;;;;6.35;5.32;;;;;;;10.59;65.43;94339.03;6262853;22;20043;-84
2023/12/11 10:07:48;;;;;;;3.63;2.65;;;;;;;10.65;65.40;94347.84;6216456;23;20035;-85
2023/12/11 10:10:18;;;;;;;5.32;4.05;;;;;;;10.63;65.81;94331.66;6216048;23;20063;-85
2023/12/11 10:12:47;;;;;;;4.57;3.55;;;;;;;10.59;65.46;94326.03;6216594;23;20011;-85
2023/12/11 10:15:34;;;;;;;3.10;2.70;;;;;;;10.84;65.02;94341.84;6192367;23;20012;-85
2023/12/11 10:20:36;;;;;;;5.50;4.22;;;;;;;11.04;64.24;94317.59;6241455;22;20020;-85
2023/12/11 10:23:15;;;;;;;6.25;4.50;;;;;;;10.80;65.41;94319.84;6215420;23;20004;-85
2023/12/11 10:25:45;;;;;;;8.27;4.85;;;;;;;10.86;65.61;94332.03;6191664;23;20008;-85
2023/12/11 10:28:12;;;;;;;5.17;4.10;;;;;;;10.84;65.81;94344.44;6215649;23;20008;-85
2023/12/11 10:30:50;;;;;;;6.18;3.95;;;;;;;10.83;65.37;94355.84;6215466;23;20031;-85
2023/12/11 10:33:16;;;;;;;12.68;5.32;;;;;;;11.04;65.15;94341.03;6216096;23;20019;-85
2023/12/11 10:35:42;;;;;;;6.50;5.03;;;;;;;10.98;64.99;94352.25;6191314;23;20026;-85
2023/12/11 10:38:07;;;;;;;16.55;6.10;;;;;;;11.07;64.46;94331.00;6191534;23;20063;-85
2023/12/11 10:40:38;;;;;;;5.85;4.38;;;;;;;11.12;63.96;94326.00;6191197;23;20066;-85
2023/12/11 10:43:03;;;;;;;7.95;3.97;;;;;;;11.02;64.45;94324.81;6190782;23;20058;-85
2023/12/11 10:45:29;;;;;;;4.75;3.78;;;;;;;10.86;65.27;94337.25;6190831;23;20012;-85
2023/12/11 10:47:55;;;;;;;5.03;3.47;;;;;;;11.18;64.42;94341.84;6191318;23;20012;-85
2023/12/11 10:52:50;;;;;;;4.00;2.90;;;;;;;11.10;64.36;94315.00;6229612;22;20110;-86
2023/12/11 10:55:16;;;;;;;3.45;2.40;;;;;;;10.95;64.80;94315.22;6246103;22;20083;-85
2023/12/11 11:10:58;;;;;;;2.13;1.83;;;;;;;11.08;65.15;94264.16;6274426;22;20019;-85
2023/12/11 11:13:51;;;;;;;1.42;1.33;;;;;;;10.79;66.73;94250.59;6247744;22;20095;-85
2023/12/11 11:16:16;;;;;;;2.47;1.80;;;;;;;10.89;66.68;94238.00;6248413;22;20053;-85
2023/12/11 11:19:13;;;;;;;1.00;0.90;;;;;;;11.02;66.38;94228.53;6198558;22;20007;-85
2023/12/11 11:21:38;;;;;;;1.58;1.02;;;;;;;11.11;66.26;94232.53;6197591;22;20011;-85
2023/12/11 11:24:25;;;;;;;3.72;3.20;;;;;;;11.15;66.25;94239.72;6223479;22;20015;-84
2023/12/11 11:26:54;;;;;;;1.35;1.05;;;;;;;11.45;65.63;94272.28;6248621;22;20031;-85
2023/12/11 11:29:45;;;;;;;1.83;1.50;;;;;;;11.55;65.27;94302.06;6199244;22;20082;-85
2023/12/11 11:32:11;;;;;;;2.35;2.15;;;;;;;11.63;64.85;94321.91;6224675;22;20004;-85
2023/12/11 11:34:39;;;;;;;5.97;3.10;;;;;;;11.53;64.70;94318.91;6248514;22;20016;-84
2023/12/11 11:37:08;;;;;;;5.80;4.15;;;;;;;11.46;64.22;94305.09;6248588;22;20008;-85
2023/12/11 11:39:57;;;;;;;4.57;3.67;;;;;;;10.99;64.95;94300.00;6223803;22;20075;-85
2023/12/11 11:42:26;;;;;;;5.65;3.50;;;;;;;10.65;65.93;94291.44;6248525;22;20004;-85
2023/12/11 11:47:22;;;;;;;4.68;3.30;;;;;;;10.12;67.12;94288.75;6275379;22;20070;-85
2023/12/11 11:49:47;;;;;;;6.50;3.95;;;;;;;10.00;67.23;94308.53;6223328;22;20015;-85
2023/12/11 11:52:14;;;;;;;5.07;3.40;;;;;;;9.87;67.55;94317.06;6247150;22;20011;-85
2023/12/11 11:54:39;;;;;;;5.68;4.55;;;;;;;9.68;67.99;94336.78;6247604;22;20007;-85
2023/12/11 11:57:09;;;;;;;7.15;5.57;;;;;;;9.27;69.42;94317.63;6248312;22;19999;-84
2023/12/11 12:02:08;;;;;;;4.55;3.15;;;;;;;9.88;67.89;94326.44;6275838;22;20035;-84
2023/12/11 12:04:34;;;;;;;3.35;2.92;;;;;;;10.28;67.06;94316.16;6222748;22;20034;-85
2023/12/11 12:07:09;;;;;;;2.80;2.38;;;;;;;10.20;67.54;94334.53;6247388;22;20004;-84
2023/12/11 12:09:35;;;;;;;2.88;2.45;;;;;;;10.60;66.31;94338.03;6222265;22;20014;-85
2023/12/11 12:12:03;;;;;;;4.55;3.63;;;;;;;10.77;65.58;94356.63;6221176;22;20015;-84
2023/12/11 12:14:28;;;;;;;3.80;3.38;;;;;;;10.85;64.96;94350.44;6247260;22;20031;-85
2023/12/11 12:16:55;;;;;;;3.95;3.25;;;;;;;10.86;65.22;94350.25;6222734;22;20015;-85
2023/12/11 12:19:31;;;;;;;3.55;3.00;;;;;;;11.03;64.52;94318.63;6196678;22;20014;-85
2023/12/11 12:21:58;;;;;;;5.35;3.60;;;;;;;10.91;65.31;94347.84;6246947;22;20007;-84
2023/12/11 12:24:24;;;;;;;5.13;3.88;;;;;;;10.81;65.40;94352.63;6223202;22;20008;-85
2023/12/11 12:29:15;;;;;;;4.30;3.30;;;;;;;10.85;65.77;94332.22;6279504;22;20065;-85
2023/12/11 12:31:42;;;;;;;6.70;4.18;;;;;;;10.46;66.97;94300.81;6197215;22;20245;-85
2023/12/11 12:34:11;;;;;;;2.70;2.28;;;;;;;10.25;67.89;94303.56;6222726;22;20023;-86
2023/12/11 12:36:38;;;;;;;3.78;2.72;;;;;;;10.31;67.70;94306.19;6248122;22;20077;-85
2023/12/11 12:39:04;;;;;;;3.05;2.20;;;;;;;10.51;67.12;94316.63;6222770;22;19999;-85
2023/12/11 12:41:31;;;;;;;3.97;2.75;;;;;;;10.47;67.57;94318.03;6247261;22;20030;-85
2023/12/11 12:44:01;;;;;;;5.57;3.22;;;;;;;10.78;66.67;94302.84;6222565;22;20018;-86
2023/12/11 12:46:36;;;;;;;3.90;2.60;;;;;;;10.84;66.87;94299.44;6247786;22;20046;-86
2023/12/11 12:57:01;;;;;;;1.02;0.68;;;;;;;10.91;66.57;94316.63;6274998;22;20015;-85
2023/12/11 12:59:26;;;;;;;2.03;1.42;;;;;;;11.02;66.47;94335.22;6247728;22;20022;-85
2023/12/11 13:01:55;;;;;;;2.10;1.67;;;;;;;10.94;66.65;94326.63;6247799;22;20086;-86
2023/12/11 13:04:23;;;;;;;2.13;1.50;;;;;;;11.24;65.20;94326.19;6246733;22;20015;-86
2023/12/11 13:06:49;;;;;;;1.15;1.05;;;;;;;11.01;65.55;94320.63;6220799;22;20015;-86
2023/12/11 13:09:29;;;;;;;2.33;1.02;;;;;;;10.78;66.04;94308.84;6247032;22;20031;-86
2023/12/11 13:11:54;;;;;;;2.23;0.83;;;;;;;10.78;65.86;94303.63;6246346;22;20078;-86
2023/12/11 13:14:20;;;;;;;0.82;0.70;;;;;;;10.60;65.86;94306.03;6221523;22;20237;-86
2023/12/11 13:16:48;;;;;;;1.73;0.80;;;;;;;10.67;66.08;94310.22;6221312;22;20003;-86
2023/12/11 13:19:13;;;;;;;0.80;0.60;;;;;;;10.92;64.92;94297.41;6244522;22;20024;-86
2023/12/11 13:21:39;;;;;;;0.93;0.77;;;;;;;10.75;65.91;94304.81;6221692;22;20065;-86
2023/12/11 13:24:05;;;;;;;1.00;0.60;;;;;;;10.92;65.25;94297.41;6221627;22;20032;-86
2023/12/11 13:26:31;;;;;;;0.85;0.80;;;;;;;10.87;66.03;94315.44;6246944;22;20073;-86
2023/12/11 13:33:57;;;;;;;0.80;0.60;;;;;;;10.60;66.65;94325.03;6272940;22;20020;-84
2023/12/11 13:36:23;;;;;;;0.47;0.30;;;;;;;10.90;65.92;94330.63;6221314;22;20018;-86
2023/12/11 13:38:49;;;;;;;0.40;0.40;;;;;;;11.10;65.07;94341.03;6221530;22;20122;-85
2023/12/11 13:41:14;;;;;;;0.70;0.40;;;;;;;11.26;64.81;94339.78;6246020;22;20014;-86
2023/12/11 13:48:42;;;;;;;1.13;0.70;;;;;;;11.22;64.72;94359.44;6241451;22;20028;-85
2023/12/11 13:51:08;;;;;;;0.75;0.60;;;;;;;11.23;64.58;94376.66;6272138;22;20029;-86
2023/12/11 13:53:34;;;;;;;0.98;0.57;;;;;;;11.18;64.71;94386.88;6245773;22;20035;-85
2023/12/11 13:56:00;;;;;;;0.60;0.40;;;;;;;11.47;63.04;94390.03;6245715;22;20030;-85
2023/12/11 13:58:27;;;;;;;0.45;0.40;;;;;;;11.39;62.64;94374.63;6222555;22;20083;-85
2023/12/11 14:13:39;;;;;;;0.77;0.30;;;;;;;10.09;65.84;94367.91;6273531;22;20008;-85
2023/12/11 14:16:07;;;;;;;0.43;0.30;;;;;;;10.26;65.32;94377.94;6196266;22;20020;-85
2023/12/11 14:18:34;;;;;;;0.40;0.30;;;;;;;10.41;65.07;94381.19;6246968;22;20117;-85
2023/12/11 14:21:04;;;;;;;0.38;0.38;;;;;;;10.39;65.27;94378.00;6246521;22;20078;-85
2023/12/11 14:33:40;;;;;;;2.00;1.85;;;;;;;10.33;65.26;94376.19;6277595;22;20019;-84
2023/12/11 14:36:07;;;;;;;2.10;1.90;;;;;;;10.63;64.96;94391.44;6198572;22;20075;-85
2023/12/11 14:38:32;;;;;;;1.48;1.20;;;;;;;10.82;64.14;94395.88;6223261;22;20065;-84
2023/12/11 14:40:58;;;;;;;1.00;0.52;;;;;;;10.82;64.31;94408.09;6248466;22;20004;-84
2023/12/11 14:50:50;;;;;;;0.50;0.50;;;;;;;10.78;63.35;94410.28;6247815;22;20020;-85
2023/12/11 14:53:15;;;;;;;0.40;0.40;;;;;;;10.55;64.17;94431.44;6248344;22;20008;-85
2023/12/11 14:55:44;;;;;;;0.40;0.40;;;;;;;10.63;63.57;94443.47;6224458;22;20007;-85
2023/12/11 14:58:09;;;;;;;0.45;0.20;;;;;;;10.62;63.38;94439.25;6249235;22;20008;-85
2023/12/11 15:00:35;;;;;;;0.60;0.60;;;;;;;10.65;63.56;94457.06;6248939;22;20045;-85
2023/12/11 15:03:00;;;;;;;0.80;0.40;;;;;;;10.65;63.57;94446.66;6198623;22;20007;-85
2023/12/11 15:05:26;;;;;;;0.40;0.30;;;;;;;10.52;63.18;94430.03;6198230;22;20146;-86
2023/12/11 15:07:54;;;;;;;0.65;0.40;;;;;;;10.68;63.37;94449.69;6224219;22;20019;-85
2023/12/11 15:10:19;;;;;;;0.40;0.40;;;;;;;10.71;63.28;94431.06;6223320;22;20036;-85
2023/12/11 15:12:45;;;;;;;1.20;0.50;;;;;;;10.78;62.75;94428.47;6223989;22;20015;-86
2023/12/11 15:20:15;;;;;;;0.95;0.40;;;;;;;10.49;63.76;94443.44;6275729;22;20019;-85
2023/12/11 15:22:41;;;;;;;0.30;0.30;;;;;;;10.61;63.55;94442.84;6247815;22;20086;-85
2023/12/11 15:25:10;;;;;;;0.50;0.40;;;;;;;10.88;62.92;94452.31;6248024;22;20008;-85
2023/12/11 15:27:39;;;;;;;4.15;2.00;;;;;;;10.79;62.88;94442.28;6223684;22;20004;-85
2023/12/11 15:30:07;;;;;;;12.10;3.05;;;;;;;11.01;62.25;94441.13;6247365;22;20003;-86
2023/12/11 15:35:08;;;;;;;1.88;0.90;;;;;;;11.04;62.10;94440.72;6273762;22;20093;-85
2023/12/11 15:37:33;;;;;;;2.28;1.10;;;;;;;11.02;62.58;94442.69;6222590;22;20015;-85
2023/12/11 15:39:59;;;;;;;0.82;0.50;;;;;;;11.07;61.75;94449.94;6247865;22;20015;-86
2023/12/11 15:47:25;;;;;;;0.70;0.70;;;;;;;10.60;63.09;94449.84;6273573;22;20089;-88
2023/12/11 15:49:51;;;;;;;1.55;0.60;;;;;;;10.75;62.70;94454.88;6222312;22;20015;-85
2023/12/11 15:52:16;;;;;;;0.90;0.70;;;;;;;10.50;62.99;94442.41;6248050;22;20003;-88
2023/12/11 15:54:43;;;;;;;1.30;0.80;;;;;;;10.43;62.89;94439.00;6222540;22;20011;-85
2023/12/11 15:57:09;;;;;;;0.65;0.65;;;;;;;10.54;62.36;94459.22;6248627;22;20007;-86
2023/12/11 16:02:09;;;;;;;0.80;0.68;;;;;;;10.50;62.72;94442.41;6267485;22;20024;-84
2023/12/11 16:04:35;;;;;;;0.80;0.60;;;;;;;10.44;62.97;94432.00;6217071;23;20140;-84
2023/12/11 16:07:00;;;;;;;0.70;0.70;;;;;;;10.39;63.59;94453.38;6192562;23;20011;-84
2023/12/11 16:09:26;;;;;;;0.80;0.70;;;;;;;10.45;63.33;94454.41;6192806;23;20016;-84
2023/12/11 16:11:52;;;;;;;0.93;0.82;;;;;;;10.44;63.42;94461.41;6192535;23;20010;-84